createdAt,value
2022-12-25T00:02:15.664Z,75.93
2022-12-25T00:04:43.626Z,76.08
2022-12-25T00:07:11.831Z,76.00
2022-12-25T00:09:39.800Z,75.16
2022-12-25T00:12:07.935Z,74.49
2022-12-25T00:14:35.968Z,74.07
2022-12-25T00:17:03.956Z,74.71
2022-12-25T00:19:33.416Z,74.61
2022-12-25T00:22:01.400Z,74.28
2022-12-25T00:24:29.350Z,74.59
2022-12-25T00:26:57.344Z,74.54
2022-12-25T00:29:25.443Z,74.44
2022-12-25T00:31:53.470Z,74.91
2022-12-25T00:34:21.499Z,74.86
2022-12-25T00:36:52.781Z,75.15
2022-12-25T00:39:20.718Z,74.79
2022-12-25T00:42:06.102Z,74.09
2022-12-25T00:44:34.051Z,75.14
2022-12-25T00:47:02.344Z,75.06
2022-12-25T00:49:30.311Z,75.70
2022-12-25T00:52:00.018Z,75.78
2022-12-25T00:54:28.064Z,75.84
2022-12-25T00:56:55.949Z,75.60
2022-12-25T00:59:23.957Z,74.83
2022-12-25T01:01:52.058Z,73.99
2022-12-25T01:04:20.154Z,74.30
2022-12-25T01:06:48.136Z,74.43
2022-12-25T01:09:35.185Z,73.20
2022-12-25T01:12:03.123Z,73.14
2022-12-25T01:14:31.145Z,73.02
2022-12-25T01:16:59.116Z,73.23
2022-12-25T01:19:26.997Z,72.86
2022-12-25T01:21:54.958Z,72.94
2022-12-25T01:24:24.286Z,72.74
2022-12-25T01:26:52.415Z,72.89
2022-12-25T01:29:20.308Z,73.10
2022-12-25T01:31:48.284Z,73.13
2022-12-25T01:34:16.398Z,73.17
2022-12-25T01:36:44.340Z,73.17
2022-12-25T01:39:12.360Z,73.29
2022-12-25T01:41:41.807Z,72.97
2022-12-25T01:44:29.824Z,72.31
2022-12-25T01:46:57.801Z,72.55
2022-12-25T01:49:27.177Z,71.58
2022-12-25T01:51:58.499Z,71.90
2022-12-25T01:54:28.892Z,71.85
2022-12-25T01:56:59.312Z,71.61
2022-12-25T01:59:28.008Z,70.49
2022-12-25T02:01:56.095Z,71.54
2022-12-25T02:04:38.837Z,71.33
2022-12-25T02:07:07.084Z,72.21
2022-12-25T02:09:35.389Z,71.91
2022-12-25T02:12:05.223Z,72.02
2022-12-25T02:14:35.052Z,72.25
2022-12-25T02:17:07.160Z,72.69
2022-12-25T02:19:59.718Z,72.88
2022-12-25T02:22:35.714Z,73.00
2022-12-25T02:25:12.438Z,73.13
2022-12-25T02:27:58.469Z,73.30
2022-12-25T02:30:26.818Z,73.09
2022-12-25T02:33:19.082Z,73.10
2022-12-25T02:35:47.850Z,73.51
2022-12-25T02:38:17.379Z,73.07
2022-12-25T02:40:45.711Z,72.85
2022-12-25T02:43:35.131Z,72.60
2022-12-25T02:46:23.710Z,72.89
2022-12-25T02:49:10.292Z,71.86
2022-12-25T02:51:57.786Z,72.07
2022-12-25T02:54:45.414Z,71.67
2022-12-25T02:57:32.593Z,70.72
2022-12-25T03:00:20.581Z,71.41
2022-12-25T03:03:06.837Z,71.33
2022-12-25T03:05:53.069Z,72.03
2022-12-25T03:08:23.636Z,71.81
2022-12-25T03:11:14.186Z,71.81
2022-12-25T03:13:44.124Z,71.72
2022-12-25T03:16:30.911Z,71.69
2022-12-25T03:18:59.374Z,70.34
2022-12-25T03:21:44.591Z,71.42
2022-12-25T03:24:29.894Z,71.23
2022-12-25T03:26:58.294Z,71.81
2022-12-25T03:29:44.482Z,71.53
2022-12-25T03:32:19.806Z,70.06
2022-12-25T03:35:25.877Z,68.65
2022-12-25T03:38:15.960Z,69.14
2022-12-25T03:41:09.113Z,68.88
2022-12-25T03:43:59.812Z,69.38
2022-12-25T03:46:47.727Z,69.90
2022-12-25T03:49:37.305Z,69.90
2022-12-25T03:52:26.037Z,70.07
2022-12-25T03:55:12.770Z,69.35
2022-12-25T03:57:58.252Z,69.48
2022-12-25T04:00:43.752Z,69.78
2022-12-25T04:03:29.431Z,69.86
2022-12-25T04:06:16.106Z,69.96
2022-12-25T04:09:01.940Z,69.89
2022-12-25T04:11:47.201Z,69.69
2022-12-25T04:14:32.425Z,70.74
2022-12-25T04:17:18.280Z,70.39
2022-12-25T04:20:03.829Z,70.28
2022-12-25T04:22:50.749Z,70.43
2022-12-25T04:25:36.305Z,70.71
2022-12-25T04:28:22.147Z,71.09
2022-12-25T04:31:07.600Z,70.76
2022-12-25T04:33:53.143Z,71.10
2022-12-25T04:36:22.859Z,70.38
2022-12-25T04:38:52.641Z,69.54
2022-12-25T04:41:20.542Z,70.31
2022-12-25T04:43:48.467Z,70.47
2022-12-25T04:46:16.440Z,70.61
2022-12-25T04:48:44.373Z,70.71
2022-12-25T04:51:13.695Z,71.14
2022-12-25T04:53:41.917Z,71.13
2022-12-25T04:56:11.443Z,70.95
2022-12-25T04:58:39.725Z,69.50
2022-12-25T05:01:07.740Z,70.77
2022-12-25T05:03:35.749Z,70.34
2022-12-25T05:06:04.203Z,70.42
2022-12-25T05:08:32.868Z,70.30
2022-12-25T05:11:01.035Z,71.12
2022-12-25T05:13:30.556Z,70.64
2022-12-25T05:15:58.720Z,70.00
2022-12-25T05:18:26.848Z,70.57
2022-12-25T05:20:55.274Z,70.57
2022-12-25T05:23:23.377Z,70.36
2022-12-25T05:25:51.424Z,70.90
2022-12-25T05:28:19.420Z,71.33
2022-12-25T05:30:48.834Z,70.56
2022-12-25T05:33:16.922Z,70.80
2022-12-25T05:35:45.077Z,71.22
2022-12-25T05:38:12.984Z,71.19
2022-12-25T05:40:42.118Z,70.95
2022-12-25T05:43:10.037Z,70.99
2022-12-25T05:45:38.231Z,70.83
2022-12-25T05:48:07.925Z,70.35
2022-12-25T05:50:37.798Z,70.92
2022-12-25T05:53:08.233Z,70.83
2022-12-25T05:55:36.948Z,71.12
2022-12-25T05:58:05.573Z,71.48
2022-12-25T06:00:33.895Z,71.06
2022-12-25T06:03:02.461Z,71.38
2022-12-25T06:05:32.372Z,71.31
2022-12-25T06:08:00.272Z,71.52
2022-12-25T06:10:28.186Z,71.64
2022-12-25T06:12:56.725Z,71.48
2022-12-25T06:15:24.779Z,70.67
2022-12-25T06:17:52.923Z,71.04
2022-12-25T06:20:22.143Z,71.00
2022-12-25T06:22:51.889Z,70.96
2022-12-25T06:25:20.190Z,70.72
2022-12-25T06:27:48.216Z,70.34
2022-12-25T06:30:16.670Z,70.55
2022-12-25T06:32:44.695Z,70.41
2022-12-25T06:35:12.721Z,71.07
2022-12-25T06:37:40.812Z,70.11
2022-12-25T06:40:10.859Z,70.69
2022-12-25T06:42:38.856Z,70.67
2022-12-25T06:45:07.167Z,69.39
2022-12-25T06:47:35.210Z,69.92
2022-12-25T06:50:03.617Z,70.31
2022-12-25T06:52:32.963Z,69.48
2022-12-25T06:55:01.028Z,69.79
2022-12-25T06:57:30.523Z,70.18
2022-12-25T06:59:58.500Z,70.14
2022-12-25T07:02:26.765Z,70.08
2022-12-25T07:04:55.099Z,70.25
2022-12-25T07:07:23.844Z,69.81
2022-12-25T07:09:51.913Z,69.96
2022-12-25T07:12:21.681Z,69.68
2022-12-25T07:14:51.270Z,69.36
2022-12-25T07:17:19.582Z,69.14
2022-12-25T07:19:47.802Z,68.50
2022-12-25T07:22:16.105Z,68.95
2022-12-25T07:24:44.135Z,68.67
2022-12-25T07:27:12.207Z,69.13
2022-12-25T07:29:40.310Z,68.95
2022-12-25T07:32:09.723Z,68.52
2022-12-25T07:34:37.700Z,68.24
2022-12-25T07:37:05.692Z,68.32
2022-12-25T07:39:34.693Z,68.74
2022-12-25T07:42:02.780Z,68.82
2022-12-25T07:44:30.857Z,68.93
2022-12-25T07:46:58.879Z,68.87
2022-12-25T07:49:28.333Z,69.01
2022-12-25T07:51:56.298Z,69.15
2022-12-25T07:54:24.455Z,69.15
2022-12-25T07:56:53.447Z,68.40
2022-12-25T07:59:21.708Z,68.67
2022-12-25T08:01:50.719Z,68.89
2022-12-25T08:04:19.037Z,68.57
2022-12-25T08:06:48.474Z,68.56
2022-12-25T08:09:16.489Z,68.46
2022-12-25T08:11:46.921Z,68.65
2022-12-25T08:14:15.086Z,68.88
2022-12-25T08:16:43.119Z,68.81
2022-12-25T08:19:11.459Z,68.07
2022-12-25T08:21:39.805Z,68.67
2022-12-25T08:24:09.700Z,68.67
2022-12-25T08:26:37.629Z,68.91
2022-12-25T08:29:05.639Z,69.28
2022-12-25T08:31:37.233Z,69.32
2022-12-25T08:34:07.481Z,68.89
2022-12-25T08:36:37.553Z,69.15
2022-12-25T08:39:05.851Z,69.42
2022-12-25T08:41:36.665Z,68.90
2022-12-25T08:44:05.002Z,69.44
2022-12-25T08:46:33.058Z,69.04
2022-12-25T08:49:01.038Z,68.87
2022-12-25T08:51:29.069Z,69.55
2022-12-25T08:54:00.202Z,69.06
2022-12-25T08:56:29.005Z,68.73
2022-12-25T08:58:58.440Z,68.90
2022-12-25T09:01:26.555Z,68.96
2022-12-25T09:03:54.638Z,68.20
2022-12-25T09:06:22.865Z,68.88
2022-12-25T09:08:51.593Z,68.67
2022-12-25T09:11:20.770Z,68.69
2022-12-25T09:13:48.959Z,68.63
2022-12-25T09:16:20.500Z,68.39
2022-12-25T09:18:48.509Z,68.46
2022-12-25T09:21:17.163Z,68.52
2022-12-25T09:23:45.377Z,68.70
2022-12-25T09:26:14.853Z,68.56
2022-12-25T09:28:50.301Z,69.04
2022-12-25T09:31:21.368Z,68.40
2022-12-25T09:33:49.817Z,68.65
2022-12-25T09:36:17.941Z,69.20
2022-12-25T09:38:46.096Z,68.96
2022-12-25T09:41:17.481Z,69.02
2022-12-25T09:43:48.031Z,69.10
2022-12-25T09:46:18.533Z,68.84
2022-12-25T09:48:50.255Z,68.46
2022-12-25T09:51:18.525Z,68.97
2022-12-25T09:53:49.596Z,68.54
2022-12-25T09:56:19.182Z,69.04
2022-12-25T09:58:47.158Z,68.96
2022-12-25T10:01:19.260Z,68.71
2022-12-25T10:04:03.262Z,68.69
2022-12-25T10:06:38.333Z,68.48
2022-12-25T10:09:22.718Z,68.66
2022-12-25T10:11:56.964Z,68.61
2022-12-25T10:14:28.328Z,68.46
2022-12-25T10:17:03.930Z,68.30
2022-12-25T10:19:42.828Z,68.34
2022-12-25T10:22:18.077Z,68.57
2022-12-25T10:24:49.735Z,68.33
2022-12-25T10:27:20.080Z,68.70
2022-12-25T10:29:51.201Z,68.81
2022-12-25T10:32:19.178Z,68.50
2022-12-25T10:34:49.725Z,68.44
2022-12-25T10:37:18.340Z,68.52
2022-12-25T10:39:47.205Z,69.00
2022-12-25T10:42:39.253Z,68.85
2022-12-25T10:45:08.270Z,68.62
2022-12-25T10:47:38.520Z,68.78
2022-12-25T10:50:11.244Z,68.48
2022-12-25T10:52:48.585Z,68.31
2022-12-25T10:55:24.945Z,68.41
2022-12-25T10:57:58.119Z,68.66
2022-12-25T11:00:27.266Z,68.71
2022-12-25T11:02:55.666Z,68.18
2022-12-25T11:05:28.611Z,68.46
2022-12-25T11:07:57.274Z,68.35
2022-12-25T11:10:26.473Z,68.46
2022-12-25T11:12:55.014Z,68.15
2022-12-25T11:15:35.296Z,67.86
2022-12-25T11:18:03.289Z,68.14
2022-12-25T11:20:33.424Z,68.56
2022-12-25T11:23:01.507Z,68.36
2022-12-25T11:25:29.622Z,68.49
2022-12-25T11:27:58.881Z,68.09
2022-12-25T11:30:27.192Z,68.02
2022-12-25T11:32:56.848Z,68.42
2022-12-25T11:35:29.480Z,68.43
2022-12-25T11:37:59.075Z,68.13
2022-12-25T11:40:29.077Z,68.31
2022-12-25T11:43:04.110Z,68.31
2022-12-25T11:45:38.782Z,68.25
2022-12-25T11:48:10.800Z,66.89
2022-12-25T11:50:40.841Z,68.39
2022-12-25T11:53:14.770Z,68.30
2022-12-25T11:55:44.549Z,68.17
2022-12-25T11:58:17.275Z,68.42
2022-12-25T12:00:47.839Z,68.31
2022-12-25T12:03:18.340Z,67.89
2022-12-25T12:05:47.454Z,68.53
2022-12-25T12:08:16.861Z,67.95
2022-12-25T12:10:58.917Z,66.72
2022-12-25T12:13:34.051Z,66.83
2022-12-25T12:16:04.211Z,67.09
2022-12-25T12:18:33.645Z,67.23
2022-12-25T12:21:03.334Z,67.06
2022-12-25T12:23:34.916Z,66.92
2022-12-25T12:26:03.171Z,66.03
2022-12-25T12:28:35.595Z,66.59
2022-12-25T12:31:05.144Z,66.46
2022-12-25T12:33:36.487Z,66.00
2022-12-25T12:36:05.851Z,66.47
2022-12-25T12:38:36.083Z,65.85
2022-12-25T12:41:05.568Z,66.06
2022-12-25T12:43:36.134Z,65.89
2022-12-25T12:46:06.790Z,66.28
2022-12-25T12:48:39.927Z,65.63
2022-12-25T12:51:08.983Z,65.48
2022-12-25T12:53:39.510Z,65.07
2022-12-25T12:56:11.033Z,65.97
2022-12-25T12:58:40.897Z,65.31
2022-12-25T13:01:13.592Z,65.12
2022-12-25T13:03:56.460Z,65.50
2022-12-25T13:06:29.187Z,64.67
2022-12-25T13:09:06.378Z,64.21
2022-12-25T13:11:38.882Z,64.58
2022-12-25T13:14:07.053Z,65.26
2022-12-25T13:16:36.224Z,64.46
2022-12-25T13:19:06.866Z,65.19
2022-12-25T13:21:35.228Z,64.48
2022-12-25T13:24:09.085Z,64.86
2022-12-25T13:26:39.106Z,65.29
2022-12-25T13:29:11.537Z,65.42
2022-12-25T13:31:41.944Z,65.39
2022-12-25T13:34:19.261Z,65.25
2022-12-25T13:36:47.215Z,64.78
2022-12-25T13:39:18.187Z,64.45
2022-12-25T13:42:04.745Z,65.10
2022-12-25T13:44:37.836Z,64.83
2022-12-25T13:47:09.803Z,65.24
2022-12-25T13:49:38.860Z,64.97
2022-12-25T13:52:12.182Z,65.24
2022-12-25T13:54:41.660Z,65.42
2022-12-25T13:57:13.324Z,65.90
2022-12-25T13:59:41.419Z,65.73
2022-12-25T14:02:16.094Z,66.10
2022-12-25T14:04:45.624Z,65.99
2022-12-25T14:07:13.898Z,65.37
2022-12-25T14:09:43.487Z,66.13
2022-12-25T14:12:17.351Z,65.92
2022-12-25T14:14:47.435Z,66.58
2022-12-25T14:17:15.487Z,66.29
2022-12-25T14:19:43.569Z,66.25
2022-12-25T14:22:13.037Z,66.40
2022-12-25T14:24:41.444Z,66.69
2022-12-25T14:27:19.287Z,66.91
2022-12-25T14:29:48.471Z,66.79
2022-12-25T14:32:17.910Z,67.04
2022-12-25T14:34:46.591Z,66.77
2022-12-25T14:37:16.939Z,67.01
2022-12-25T14:39:48.239Z,66.93
2022-12-25T14:45:32.544Z,66.87
2022-12-25T14:48:03.079Z,67.05
2022-12-25T14:50:32.740Z,67.02
2022-12-25T14:53:01.244Z,67.12
2022-12-25T14:55:30.376Z,67.30
2022-12-25T14:58:01.247Z,67.07
2022-12-25T15:00:31.860Z,66.88
2022-12-25T15:03:00.777Z,67.08
2022-12-25T15:05:30.759Z,67.32
2022-12-25T15:08:07.174Z,67.21
2022-12-25T15:13:25.671Z,66.51
2022-12-25T15:15:56.191Z,67.15
2022-12-25T15:18:25.432Z,66.64
2022-12-25T15:20:54.416Z,66.97
2022-12-25T15:23:22.867Z,66.77
2022-12-25T15:25:52.229Z,67.20
2022-12-25T15:28:20.192Z,67.04
2022-12-25T15:30:51.004Z,67.28
2022-12-25T15:33:19.980Z,66.97
2022-12-25T15:35:47.943Z,67.24
2022-12-25T15:38:16.202Z,67.35
2022-12-25T15:40:44.400Z,67.21
2022-12-25T15:43:39.036Z,67.46
2022-12-25T15:46:04.321Z,67.84
2022-12-25T15:48:32.301Z,68.03
2022-12-25T15:51:00.294Z,68.21
2022-12-25T15:53:28.299Z,68.31
2022-12-25T15:55:56.337Z,68.09
2022-12-25T15:58:24.685Z,68.11
2022-12-25T16:00:52.620Z,67.84
2022-12-25T16:03:22.161Z,67.33
2022-12-25T16:05:50.329Z,67.65
2022-12-25T16:08:18.526Z,67.29
2022-12-25T16:10:46.566Z,67.81
2022-12-25T16:13:14.782Z,67.95
2022-12-25T16:15:42.677Z,68.00
2022-12-25T16:18:11.675Z,67.88
2022-12-25T16:20:41.075Z,68.16
2022-12-25T16:23:09.167Z,67.87
2022-12-25T16:25:37.163Z,67.46
2022-12-25T16:28:06.219Z,67.05
2022-12-25T16:30:35.133Z,67.74
2022-12-25T16:33:03.166Z,67.89
2022-12-25T16:35:31.120Z,67.47
2022-12-25T16:38:00.717Z,67.48
2022-12-25T16:40:28.999Z,65.89
2022-12-25T16:42:57.541Z,66.89
2022-12-25T16:45:25.600Z,67.36
2022-12-25T16:47:53.554Z,67.64
2022-12-25T16:50:22.625Z,67.11
2022-12-25T16:52:50.695Z,66.49
2022-12-25T16:55:25.024Z,67.37
2022-12-25T16:57:56.037Z,67.58
2022-12-25T17:00:23.987Z,66.82
2022-12-25T17:02:52.081Z,66.85
2022-12-25T17:05:20.290Z,66.74
2022-12-25T17:07:48.352Z,66.92
2022-12-25T17:10:16.413Z,66.47
2022-12-25T17:12:45.990Z,67.02
2022-12-25T17:15:14.193Z,66.68
2022-12-25T17:17:42.492Z,66.76
2022-12-25T17:20:10.875Z,66.57
2022-12-25T17:22:38.781Z,67.29
2022-12-25T17:25:07.041Z,66.38
2022-12-25T17:27:35.191Z,66.71
2022-12-25T17:30:05.033Z,66.53
2022-12-25T17:32:33.118Z,66.91
2022-12-25T17:35:01.292Z,66.92
2022-12-25T17:37:29.256Z,66.70
2022-12-25T17:39:57.357Z,67.12
2022-12-25T17:45:37.132Z,66.83
2022-12-25T17:48:05.413Z,66.74
2022-12-25T17:50:39.332Z,66.83
2022-12-25T17:53:09.382Z,66.93
2022-12-25T17:55:39.017Z,66.13
2022-12-25T17:58:06.998Z,65.42
2022-12-25T18:00:36.627Z,65.71
2022-12-25T18:03:11.298Z,65.29
2022-12-25T18:05:40.179Z,66.23
2022-12-25T18:08:08.239Z,66.25
2022-12-25T18:10:37.086Z,66.00
2022-12-25T18:13:05.437Z,66.62
2022-12-25T18:15:33.552Z,65.94
2022-12-25T18:18:03.251Z,66.18
2022-12-25T18:20:39.367Z,65.81
2022-12-25T18:23:08.104Z,66.27
2022-12-25T18:25:36.115Z,66.37
2022-12-25T18:28:04.142Z,66.77
2022-12-25T18:30:32.300Z,66.53
2022-12-25T18:33:00.248Z,66.63
2022-12-25T18:35:30.024Z,66.95
2022-12-25T18:37:58.112Z,66.76
2022-12-25T18:40:26.177Z,66.64
2022-12-25T18:43:01.079Z,66.59
2022-12-25T18:45:31.155Z,66.70
2022-12-25T18:48:03.337Z,66.29
2022-12-25T18:50:33.255Z,65.48
2022-12-25T18:53:01.445Z,65.85
2022-12-25T18:55:29.541Z,65.01
2022-12-25T18:57:57.739Z,65.32
2022-12-25T19:00:26.211Z,65.42
2022-12-25T19:02:57.255Z,65.61
2022-12-25T19:05:25.703Z,65.83
2022-12-25T19:07:55.371Z,65.75
2022-12-25T19:10:23.430Z,66.36
2022-12-25T19:12:51.358Z,66.28
2022-12-25T19:15:19.550Z,66.60
2022-12-25T19:17:47.610Z,67.07
2022-12-25T19:20:15.615Z,66.69
2022-12-25T19:22:43.795Z,66.29
2022-12-25T19:25:13.350Z,65.24
2022-12-25T19:27:41.403Z,65.68
2022-12-25T19:30:10.300Z,65.51
2022-12-25T19:32:38.283Z,66.00
2022-12-25T19:35:07.252Z,66.41
2022-12-25T19:37:35.404Z,66.55
2022-12-25T19:40:04.183Z,66.75
2022-12-25T19:42:33.601Z,66.14
2022-12-25T19:45:03.213Z,65.74
2022-12-25T19:47:31.290Z,65.79
2022-12-25T19:50:02.851Z,66.34
2022-12-25T19:52:31.810Z,66.78
2022-12-25T19:54:59.792Z,66.90
2022-12-25T19:57:27.761Z,67.01
2022-12-25T19:59:57.164Z,67.02
2022-12-25T20:02:25.346Z,66.36
2022-12-25T20:04:53.517Z,66.37
2022-12-25T20:07:21.551Z,66.83
2022-12-25T20:09:49.494Z,66.98
2022-12-25T20:12:17.622Z,66.41
2022-12-25T20:14:46.480Z,66.44
2022-12-25T20:17:16.378Z,66.72
2022-12-25T20:19:44.679Z,66.99
2022-12-25T20:22:12.635Z,66.87
2022-12-25T20:24:40.628Z,67.48
2022-12-25T20:27:08.588Z,67.46
2022-12-25T20:29:36.540Z,67.38
2022-12-25T20:32:05.120Z,67.10
2022-12-25T20:34:34.643Z,67.15
2022-12-25T20:37:02.635Z,67.40
2022-12-25T20:42:11.097Z,66.90
2022-12-25T20:44:41.826Z,67.12
2022-12-25T20:47:10.069Z,66.54
2022-12-25T20:49:39.478Z,66.59
2022-12-25T20:52:07.680Z,66.46
2022-12-25T20:54:36.128Z,65.96
2022-12-25T20:57:04.143Z,66.26
2022-12-25T20:59:37.411Z,66.46
2022-12-25T21:02:06.149Z,66.80
2022-12-25T21:04:34.440Z,66.63
2022-12-25T21:07:03.876Z,66.21
2022-12-25T21:09:32.036Z,66.39
2022-12-25T21:12:00.137Z,66.87
2022-12-25T21:14:29.679Z,67.10
2022-12-25T21:16:57.684Z,67.24
2022-12-25T21:19:26.101Z,67.34
2022-12-25T21:21:54.153Z,67.39
2022-12-25T21:24:23.666Z,66.89
2022-12-25T21:26:51.590Z,66.93
2022-12-25T21:29:22.980Z,66.52
2022-12-25T21:32:08.785Z,66.38
2022-12-25T21:34:36.760Z,66.10
2022-12-25T21:37:04.903Z,66.44
2022-12-25T21:39:34.508Z,66.48
2022-12-25T21:42:04.655Z,66.53
2022-12-25T21:44:32.804Z,66.28
2022-12-25T21:47:00.837Z,65.33
2022-12-25T21:49:46.069Z,65.15
2022-12-25T21:52:16.107Z,65.33
2022-12-25T21:54:45.668Z,65.94
2022-12-25T21:57:13.691Z,64.33
2022-12-25T21:59:41.663Z,64.62
2022-12-25T22:02:11.637Z,64.60
2022-12-25T22:04:40.170Z,65.06
2022-12-25T22:07:19.161Z,65.21
2022-12-25T22:09:49.547Z,65.65
2022-12-25T22:12:35.823Z,65.23
2022-12-25T22:15:06.697Z,64.42
2022-12-25T22:17:52.763Z,64.68
2022-12-25T22:20:21.530Z,64.70
2022-12-25T22:22:49.560Z,65.52
2022-12-25T22:25:19.271Z,65.09
2022-12-25T22:27:47.838Z,65.39
2022-12-25T22:30:17.042Z,65.08
2022-12-25T22:32:45.022Z,65.03
2022-12-25T22:35:13.549Z,64.22
2022-12-25T22:37:41.845Z,64.78
2022-12-25T22:40:10.788Z,65.14
2022-12-25T22:42:40.129Z,65.34
2022-12-25T22:45:08.709Z,65.20
2022-12-25T22:47:36.852Z,65.27
2022-12-25T22:50:05.270Z,65.19
2022-12-25T22:52:33.520Z,65.77
2022-12-25T22:57:49.502Z,63.89
2022-12-25T23:00:17.439Z,64.86
2022-12-25T23:02:45.519Z,65.18
2022-12-25T23:05:13.657Z,64.77
2022-12-25T23:07:41.918Z,65.04
2022-12-25T23:10:10.913Z,64.82
2022-12-25T23:12:56.453Z,65.13
2022-12-25T23:15:27.813Z,63.11
2022-12-25T23:18:13.187Z,64.12
2022-12-25T23:20:58.753Z,64.23
2022-12-25T23:23:52.840Z,64.22
2022-12-25T23:26:21.414Z,64.25
2022-12-25T23:29:06.890Z,64.37
2022-12-25T23:31:37.357Z,64.46
2022-12-25T23:34:06.153Z,64.17
2022-12-25T23:39:41.984Z,65.08
2022-12-25T23:42:10.168Z,65.32
2022-12-25T23:44:38.154Z,65.46
2022-12-25T23:47:07.597Z,66.02
2022-12-25T23:49:35.639Z,65.82
2022-12-25T23:52:03.671Z,66.21
2022-12-25T23:54:32.483Z,66.10
2022-12-25T23:57:00.852Z,66.11
2022-12-25T23:59:30.251Z,66.30
